createdAt,value
2022-08-28T00:00:15.924Z,19.80
2022-08-28T00:01:15.927Z,17.70
2022-08-28T00:02:15.895Z,19.40
2022-08-28T00:03:17.489Z,20.70
2022-08-28T00:04:15.950Z,18.50
2022-08-28T00:05:15.898Z,18.40
2022-08-28T00:06:15.844Z,17.40
2022-08-28T00:07:15.840Z,18.00
2022-08-28T00:08:15.874Z,17.80
2022-08-28T00:09:15.829Z,18.70
2022-08-28T00:10:15.795Z,19.10
2022-08-28T00:11:15.829Z,17.30
2022-08-28T00:12:15.776Z,17.70
2022-08-28T00:13:15.763Z,18.50
2022-08-28T00:14:15.745Z,18.00
2022-08-28T00:15:15.745Z,17.00
2022-08-28T00:16:15.790Z,17.40
2022-08-28T00:17:15.758Z,20.20
2022-08-28T00:18:15.738Z,19.90
2022-08-28T00:19:15.686Z,20.70
2022-08-28T00:20:15.669Z,17.90
2022-08-28T00:21:15.671Z,18.30
2022-08-28T00:22:15.664Z,20.80
2022-08-28T00:23:15.673Z,16.80
2022-08-28T00:24:15.635Z,16.20
2022-08-28T00:25:15.611Z,18.60
2022-08-28T00:26:15.590Z,19.80
2022-08-28T00:27:15.579Z,17.60
2022-08-28T00:28:23.697Z,20.70
2022-08-28T00:29:15.610Z,18.10
2022-08-28T00:30:15.534Z,20.60
2022-08-28T00:31:15.537Z,18.40
2022-08-28T00:32:15.513Z,17.30
2022-08-28T00:33:15.534Z,17.10
2022-08-28T00:34:15.485Z,17.40
2022-08-28T00:35:15.517Z,16.40
2022-08-28T00:36:15.454Z,18.30
2022-08-28T00:37:15.449Z,17.80
2022-08-28T00:38:15.462Z,16.50
2022-08-28T00:39:15.430Z,17.00
2022-08-28T00:40:15.436Z,16.10
2022-08-28T00:41:15.485Z,17.40
2022-08-28T00:42:15.390Z,15.80
2022-08-28T00:43:15.373Z,17.70
2022-08-28T00:44:15.370Z,16.10
2022-08-28T00:45:15.355Z,16.10
2022-08-28T00:46:15.411Z,17.20
2022-08-28T00:47:15.381Z,18.50
2022-08-28T00:48:15.349Z,16.40
2022-08-28T00:49:15.321Z,17.60
2022-08-28T00:50:15.263Z,15.20
2022-08-28T00:51:15.264Z,17.80
2022-08-28T00:52:15.251Z,15.20
2022-08-28T00:53:15.314Z,19.30
2022-08-28T00:54:15.207Z,15.60
2022-08-28T00:55:15.241Z,16.50
2022-08-28T00:56:15.213Z,16.00
2022-08-28T00:57:15.189Z,15.10
2022-08-28T00:58:15.242Z,17.00
2022-08-28T00:59:15.200Z,16.30
2022-08-28T01:00:15.136Z,16.10
2022-08-28T01:01:15.188Z,15.90
2022-08-28T01:02:15.112Z,15.90
2022-08-28T01:03:15.113Z,17.50
2022-08-28T01:04:15.091Z,15.90
2022-08-28T01:05:15.120Z,15.70
2022-08-28T01:06:15.079Z,18.40
2022-08-28T01:07:15.083Z,15.40
2022-08-28T01:08:15.213Z,15.30
2022-08-28T01:09:15.056Z,15.90
2022-08-28T01:10:15.017Z,17.20
2022-08-28T01:11:15.048Z,16.60
2022-08-28T01:12:14.984Z,15.10
2022-08-28T01:13:14.978Z,16.80
2022-08-28T01:14:14.971Z,15.10
2022-08-28T01:15:14.954Z,19.80
2022-08-28T01:16:14.997Z,16.70
2022-08-28T01:17:14.966Z,14.20
2022-08-28T01:18:15.031Z,14.50
2022-08-28T01:19:14.927Z,14.60
2022-08-28T01:20:14.873Z,16.80
2022-08-28T01:21:20.001Z,15.80
2022-08-28T01:22:14.850Z,13.60
2022-08-28T01:23:14.896Z,14.10
2022-08-28T01:24:14.874Z,15.60
2022-08-28T01:25:14.822Z,14.80
2022-08-28T01:26:14.802Z,13.70
2022-08-28T01:27:14.820Z,15.20
2022-08-28T01:28:15.027Z,14.70
2022-08-28T01:29:14.811Z,17.00
2022-08-28T01:30:14.774Z,14.90
2022-08-28T01:31:14.791Z,14.20
2022-08-28T01:32:14.724Z,16.20
2022-08-28T01:33:14.730Z,14.80
2022-08-28T01:34:14.691Z,13.30
2022-08-28T01:35:14.847Z,12.10
2022-08-28T01:36:14.694Z,12.70
2022-08-28T01:37:14.666Z,14.20
2022-08-28T01:38:19.626Z,13.90
2022-08-28T01:39:14.670Z,13.60
2022-08-28T01:40:14.617Z,12.90
2022-08-28T01:41:14.653Z,14.40
2022-08-28T01:42:14.598Z,13.40
2022-08-28T01:43:14.588Z,13.20
2022-08-28T01:44:14.562Z,17.20
2022-08-28T01:45:14.568Z,13.00
2022-08-28T01:46:14.614Z,12.90
2022-08-28T01:47:14.592Z,12.60
2022-08-28T01:48:14.638Z,12.10
2022-08-28T01:49:14.509Z,13.40
2022-08-28T01:50:14.492Z,12.90
2022-08-28T01:51:14.480Z,12.30
2022-08-28T01:52:14.475Z,11.60
2022-08-28T01:53:14.509Z,13.50
2022-08-28T01:54:14.442Z,12.20
2022-08-28T01:55:14.428Z,13.50
2022-08-28T01:56:14.423Z,13.00
2022-08-28T01:57:14.392Z,13.80
2022-08-28T01:58:14.672Z,14.00
2022-08-28T01:59:14.400Z,12.50
2022-08-28T02:00:14.370Z,14.50
2022-08-28T02:01:14.411Z,11.20
2022-08-28T02:02:14.345Z,13.80
2022-08-28T02:03:14.317Z,13.20
2022-08-28T02:04:14.385Z,11.30
2022-08-28T02:05:14.353Z,12.60
2022-08-28T02:06:14.287Z,12.90
2022-08-28T02:07:14.283Z,12.70
2022-08-28T02:08:14.528Z,13.90
2022-08-28T02:09:14.405Z,13.90
2022-08-28T02:10:14.231Z,13.20
2022-08-28T02:11:14.251Z,13.60
2022-08-28T02:12:14.227Z,12.80
2022-08-28T02:13:14.193Z,11.60
2022-08-28T02:14:14.188Z,10.60
2022-08-28T02:15:14.166Z,13.70
2022-08-28T02:16:14.198Z,12.60
2022-08-28T02:17:14.186Z,13.20
2022-08-28T02:18:14.558Z,12.10
2022-08-28T02:19:14.106Z,13.10
2022-08-28T02:20:14.103Z,11.60
2022-08-28T02:21:14.081Z,14.60
2022-08-28T02:22:14.092Z,12.50
2022-08-28T02:23:14.092Z,11.40
2022-08-28T02:24:14.080Z,11.70
2022-08-28T02:25:14.028Z,15.30
2022-08-28T02:26:14.027Z,13.60
2022-08-28T02:27:14.008Z,12.10
2022-08-28T02:28:14.222Z,14.10
2022-08-28T02:29:14.022Z,14.00
2022-08-28T02:30:13.982Z,11.90
2022-08-28T02:31:13.968Z,13.30
2022-08-28T02:32:13.946Z,12.70
2022-08-28T02:33:13.936Z,12.30
2022-08-28T02:34:13.929Z,12.50
2022-08-28T02:35:13.934Z,12.00
2022-08-28T02:36:13.905Z,10.20
2022-08-28T02:37:13.865Z,11.80
2022-08-28T02:38:13.949Z,11.50
2022-08-28T02:39:13.857Z,12.00
2022-08-28T02:40:13.870Z,13.70
2022-08-28T02:41:13.857Z,11.90
2022-08-28T02:42:13.829Z,11.50
2022-08-28T02:43:13.817Z,12.40
2022-08-28T02:44:13.882Z,12.40
2022-08-28T02:45:13.768Z,11.40
2022-08-28T02:46:13.874Z,10.50
2022-08-28T02:47:13.811Z,13.40
2022-08-28T02:48:17.009Z,12.50
2022-08-28T02:49:13.707Z,10.30
2022-08-28T02:50:13.716Z,12.90
2022-08-28T02:51:13.726Z,10.50
2022-08-28T02:52:13.690Z,11.00
2022-08-28T02:53:13.708Z,12.10
2022-08-28T02:54:13.676Z,9.80
2022-08-28T02:55:13.649Z,10.60
2022-08-28T02:56:13.645Z,11.80
2022-08-28T02:57:13.613Z,11.50
2022-08-28T02:58:13.821Z,11.40
2022-08-28T02:59:13.620Z,10.60
2022-08-28T03:00:13.599Z,13.20
2022-08-28T03:01:13.661Z,10.00
2022-08-28T03:02:13.608Z,12.80
2022-08-28T03:03:13.531Z,13.00
2022-08-28T03:04:13.531Z,11.90
2022-08-28T03:05:13.595Z,11.60
2022-08-28T03:06:13.512Z,11.00
2022-08-28T03:07:13.480Z,10.60
2022-08-28T03:08:13.653Z,11.70
2022-08-28T03:09:13.466Z,12.60
2022-08-28T03:10:13.460Z,10.50
2022-08-28T03:11:13.516Z,10.80
2022-08-28T03:12:13.423Z,12.20
2022-08-28T03:13:23.058Z,10.10
2022-08-28T03:14:13.406Z,9.60
2022-08-28T03:15:13.373Z,10.60
2022-08-28T03:16:13.454Z,11.40
2022-08-28T03:17:13.390Z,10.70
2022-08-28T03:18:13.606Z,9.80
2022-08-28T03:19:13.329Z,11.20
2022-08-28T03:20:13.325Z,12.90
2022-08-28T03:21:13.294Z,11.10
2022-08-28T03:22:13.307Z,11.30
2022-08-28T03:23:13.310Z,11.30
2022-08-28T03:24:15.683Z,11.20
2022-08-28T03:25:13.252Z,10.40
2022-08-28T03:26:13.250Z,11.60
2022-08-28T03:27:13.218Z,9.50
2022-08-28T03:28:13.350Z,11.40
2022-08-28T03:29:13.229Z,11.80
2022-08-28T03:30:13.200Z,12.20
2022-08-28T03:31:13.216Z,11.00
2022-08-28T03:32:13.166Z,13.30
2022-08-28T03:33:13.146Z,10.60
2022-08-28T03:34:13.148Z,10.80
2022-08-28T03:35:13.170Z,9.90
2022-08-28T03:36:13.149Z,12.10
2022-08-28T03:37:13.111Z,10.60
2022-08-28T03:38:13.206Z,11.20
2022-08-28T03:39:13.066Z,10.30
2022-08-28T03:40:13.143Z,16.70
2022-08-28T03:41:13.076Z,10.60
2022-08-28T03:42:13.036Z,12.30
2022-08-28T03:43:13.025Z,10.20
2022-08-28T03:44:13.015Z,11.20
2022-08-28T03:45:12.991Z,10.70
2022-08-28T03:46:13.078Z,10.30
2022-08-28T03:47:12.994Z,12.10
2022-08-28T03:48:13.100Z,11.70
2022-08-28T03:49:12.969Z,10.00
2022-08-28T03:50:12.998Z,11.20
2022-08-28T03:51:12.904Z,10.30
2022-08-28T03:52:12.921Z,12.60
2022-08-28T03:53:12.905Z,10.80
2022-08-28T03:54:12.879Z,12.40
2022-08-28T03:55:12.871Z,11.50
2022-08-28T03:56:12.850Z,9.70
2022-08-28T03:57:12.824Z,10.20
2022-08-28T03:58:18.932Z,10.00
2022-08-28T03:59:12.857Z,13.00
2022-08-28T04:00:12.801Z,10.60
2022-08-28T04:01:12.852Z,10.50
2022-08-28T04:02:12.772Z,9.20
2022-08-28T04:03:12.863Z,10.40
2022-08-28T04:04:12.770Z,11.50
2022-08-28T04:05:12.755Z,10.60
2022-08-28T04:06:12.778Z,10.70
2022-08-28T04:07:12.693Z,10.00
2022-08-28T04:08:12.770Z,10.20
2022-08-28T04:09:12.694Z,11.20
2022-08-28T04:10:12.674Z,11.20
2022-08-28T04:11:12.686Z,11.00
2022-08-28T04:12:12.597Z,11.40
2022-08-28T04:13:12.570Z,9.30
2022-08-28T04:14:12.559Z,10.40
2022-08-28T04:15:12.542Z,10.10
2022-08-28T04:16:12.574Z,11.70
2022-08-28T04:17:12.598Z,11.30
2022-08-28T04:18:12.718Z,10.40
2022-08-28T04:19:12.489Z,10.90
2022-08-28T04:20:12.545Z,9.40
2022-08-28T04:21:12.466Z,11.20
2022-08-28T04:22:12.467Z,13.00
2022-08-28T04:23:12.481Z,10.10
2022-08-28T04:24:12.483Z,9.80
2022-08-28T04:25:12.428Z,11.20
2022-08-28T04:26:12.424Z,9.70
2022-08-28T04:27:12.377Z,11.80
2022-08-28T04:28:12.584Z,10.10
2022-08-28T04:29:12.388Z,9.10
2022-08-28T04:30:12.360Z,11.20
2022-08-28T04:31:12.334Z,8.60
2022-08-28T04:32:12.374Z,9.30
2022-08-28T04:33:12.319Z,11.40
2022-08-28T04:34:12.338Z,10.80
2022-08-28T04:35:12.321Z,11.00
2022-08-28T04:36:12.279Z,10.80
2022-08-28T04:37:12.267Z,10.80
2022-08-28T04:38:12.247Z,9.60
2022-08-28T04:39:12.224Z,9.30
2022-08-28T04:40:12.311Z,10.80
2022-08-28T04:41:12.246Z,11.00
2022-08-28T04:42:12.205Z,9.30
2022-08-28T04:43:12.176Z,9.20
2022-08-28T04:44:12.183Z,10.40
2022-08-28T04:45:12.148Z,10.70
2022-08-28T04:46:12.253Z,10.70
2022-08-28T04:47:12.152Z,11.40
2022-08-28T04:48:13.504Z,10.60
2022-08-28T04:49:12.113Z,10.20
2022-08-28T04:50:12.105Z,12.20
2022-08-28T04:51:12.071Z,11.90
2022-08-28T04:52:12.120Z,9.50
2022-08-28T04:53:12.075Z,10.80
2022-08-28T04:54:12.054Z,12.30
2022-08-28T04:55:12.013Z,11.20
2022-08-28T04:56:12.023Z,8.40
2022-08-28T04:57:11.998Z,9.50
2022-08-28T04:58:12.241Z,11.30
2022-08-28T04:59:12.008Z,9.30
2022-08-28T05:00:11.973Z,9.70
2022-08-28T05:01:11.978Z,8.60
2022-08-28T05:02:11.994Z,9.50
2022-08-28T05:03:11.996Z,12.40
2022-08-28T05:04:11.924Z,10.60
2022-08-28T05:05:11.927Z,11.10
2022-08-28T05:06:11.885Z,8.80
2022-08-28T05:07:11.866Z,10.40
2022-08-28T05:08:12.136Z,11.60
2022-08-28T05:09:11.839Z,9.10
2022-08-28T05:10:11.835Z,12.00
2022-08-28T05:11:11.840Z,10.80
2022-08-28T05:12:11.820Z,9.80
2022-08-28T05:13:11.779Z,11.20
2022-08-28T05:14:15.945Z,9.50
2022-08-28T05:15:11.765Z,8.90
2022-08-28T05:16:11.833Z,10.50
2022-08-28T05:17:11.756Z,9.10
2022-08-28T05:18:11.861Z,9.80
2022-08-28T05:19:11.730Z,10.70
2022-08-28T05:20:11.696Z,9.10
2022-08-28T05:21:14.434Z,11.20
2022-08-28T05:22:11.684Z,11.10
2022-08-28T05:23:11.720Z,10.40
2022-08-28T05:24:11.649Z,9.90
2022-08-28T05:25:11.636Z,15.80
2022-08-28T05:26:11.648Z,10.00
2022-08-28T05:27:11.600Z,10.10
2022-08-28T05:28:12.290Z,10.60
2022-08-28T05:29:11.609Z,9.50
2022-08-28T05:30:11.569Z,8.70
2022-08-28T05:31:11.618Z,9.00
2022-08-28T05:32:11.541Z,10.20
2022-08-28T05:33:11.517Z,8.60
2022-08-28T05:34:11.545Z,9.10
2022-08-28T05:35:11.540Z,9.40
2022-08-28T05:36:11.513Z,8.60
2022-08-28T05:37:11.467Z,9.50
2022-08-28T05:38:11.591Z,11.30
2022-08-28T05:39:11.438Z,8.40
2022-08-28T05:40:11.484Z,10.20
2022-08-28T05:41:11.457Z,11.70
2022-08-28T05:42:11.433Z,8.30
2022-08-28T05:43:11.409Z,9.60
2022-08-28T05:44:11.390Z,8.70
2022-08-28T05:45:11.366Z,9.40
2022-08-28T05:46:11.402Z,8.20
2022-08-28T05:47:11.367Z,8.00
2022-08-28T05:48:11.451Z,10.20
2022-08-28T05:49:11.315Z,9.80
2022-08-28T05:50:11.344Z,9.00
2022-08-28T05:51:11.287Z,7.70
2022-08-28T05:52:11.285Z,8.80
2022-08-28T05:53:11.310Z,8.50
2022-08-28T05:54:11.264Z,9.00
2022-08-28T05:55:11.244Z,10.10
2022-08-28T05:56:11.242Z,7.70
2022-08-28T05:57:11.217Z,9.70
2022-08-28T05:58:11.265Z,10.30
2022-08-28T05:59:11.178Z,8.70
2022-08-28T06:00:11.199Z,9.60
2022-08-28T06:01:11.163Z,11.30
2022-08-28T06:02:11.216Z,10.70
2022-08-28T06:03:11.124Z,10.00
2022-08-28T06:04:11.223Z,8.90
2022-08-28T06:05:12.867Z,9.30
2022-08-28T06:06:11.109Z,8.60
2022-08-28T06:07:11.074Z,8.40
2022-08-28T06:08:11.170Z,10.40
2022-08-28T06:09:11.094Z,9.90
2022-08-28T06:10:11.057Z,9.80
2022-08-28T06:11:11.038Z,7.20
2022-08-28T06:12:11.011Z,10.00
2022-08-28T06:13:11.014Z,8.20
2022-08-28T06:14:11.002Z,10.30
2022-08-28T06:15:11.028Z,9.00
2022-08-28T06:16:10.977Z,7.70
2022-08-28T06:17:10.982Z,9.20
2022-08-28T06:18:10.939Z,8.60
2022-08-28T06:19:10.944Z,8.80
2022-08-28T06:20:10.940Z,8.40
2022-08-28T06:21:10.965Z,9.30
2022-08-28T06:22:10.898Z,8.50
2022-08-28T06:23:10.895Z,9.80
2022-08-28T06:24:10.848Z,9.10
2022-08-28T06:25:10.854Z,7.40
2022-08-28T06:26:11.122Z,8.50
2022-08-28T06:27:10.850Z,8.80
2022-08-28T06:28:10.823Z,8.50
2022-08-28T06:29:10.818Z,7.70
2022-08-28T06:30:10.780Z,9.40
2022-08-28T06:31:24.228Z,8.70
2022-08-28T06:32:10.853Z,8.40
2022-08-28T06:33:10.793Z,9.40
2022-08-28T06:34:10.722Z,8.60
2022-08-28T06:35:10.805Z,7.60
2022-08-28T06:36:10.699Z,9.10
2022-08-28T06:37:10.721Z,8.90
2022-08-28T06:38:10.684Z,9.20
2022-08-28T06:39:10.669Z,8.30
2022-08-28T06:40:10.653Z,6.80
2022-08-28T06:41:10.650Z,7.60
2022-08-28T06:42:10.641Z,8.80
2022-08-28T06:43:10.610Z,9.00
2022-08-28T06:44:10.589Z,8.20
2022-08-28T06:45:10.606Z,8.50
2022-08-28T06:46:10.669Z,7.40
2022-08-28T06:47:10.603Z,8.50
2022-08-28T06:48:10.563Z,9.10
2022-08-28T06:49:10.540Z,8.00
2022-08-28T06:50:10.513Z,6.50
2022-08-28T06:51:10.517Z,7.30
2022-08-28T06:52:10.558Z,8.50
2022-08-28T06:53:10.520Z,9.30
2022-08-28T06:54:10.454Z,10.10
2022-08-28T06:55:10.472Z,8.90
2022-08-28T06:56:10.438Z,6.80
2022-08-28T06:57:10.433Z,7.30
2022-08-28T06:58:10.454Z,7.00
2022-08-28T06:59:10.443Z,8.70
2022-08-28T07:00:10.380Z,7.30
2022-08-28T07:01:10.429Z,8.00
2022-08-28T07:02:10.529Z,9.20
2022-08-28T07:03:10.356Z,7.00
2022-08-28T07:04:10.366Z,8.30
2022-08-28T07:05:10.337Z,6.90
2022-08-28T07:07:31.428Z,9.60
2022-08-28T07:08:27.870Z,7.80
2022-08-28T07:09:27.913Z,9.10
2022-08-28T07:10:27.835Z,8.30
2022-08-28T07:11:27.838Z,7.70
2022-08-28T07:12:27.828Z,7.50
2022-08-28T07:13:32.123Z,8.00
2022-08-28T07:14:27.794Z,8.90
2022-08-28T07:15:27.877Z,7.00
2022-08-28T07:16:27.853Z,9.90
2022-08-28T07:17:27.758Z,8.50
2022-08-28T07:18:27.728Z,7.50
2022-08-28T07:19:27.753Z,9.10
2022-08-28T07:20:27.799Z,8.30
2022-08-28T07:21:27.720Z,6.90
2022-08-28T07:22:27.698Z,7.70
2022-08-28T07:23:27.706Z,8.50
2022-08-28T07:24:27.660Z,9.20
2022-08-28T07:25:27.676Z,6.60
2022-08-28T07:26:27.681Z,8.60
2022-08-28T07:27:27.658Z,11.30
2022-08-28T07:28:27.668Z,8.90
2022-08-28T07:29:27.627Z,8.40
2022-08-28T07:30:27.593Z,7.90
2022-08-28T07:31:27.824Z,6.60
2022-08-28T07:32:27.552Z,8.80
2022-08-28T07:33:27.588Z,8.10
2022-08-28T07:34:27.554Z,7.60
2022-08-28T07:35:27.527Z,9.00
2022-08-28T07:36:29.476Z,7.70
2022-08-28T07:37:27.550Z,8.70
2022-08-28T07:38:27.488Z,6.60
2022-08-28T07:39:27.481Z,9.70
2022-08-28T07:40:27.543Z,9.00
2022-08-28T07:41:27.485Z,10.20
2022-08-28T07:42:27.459Z,6.80
2022-08-28T07:43:27.428Z,10.10
2022-08-28T07:44:27.401Z,8.70
2022-08-28T07:45:27.415Z,7.90
2022-08-28T07:46:27.417Z,9.20
2022-08-28T07:47:27.384Z,9.60
2022-08-28T07:48:27.438Z,8.40
2022-08-28T07:49:27.368Z,8.10
2022-08-28T07:50:27.344Z,8.10
2022-08-28T07:51:27.325Z,8.10
2022-08-28T07:52:27.299Z,9.20
2022-08-28T07:53:27.332Z,8.00
2022-08-28T07:54:27.285Z,8.40
2022-08-28T07:55:27.303Z,7.90
2022-08-28T07:56:27.240Z,9.70
2022-08-28T07:57:27.274Z,6.30
2022-08-28T07:58:27.242Z,8.10
2022-08-28T07:59:29.596Z,6.90
2022-08-28T08:00:27.207Z,7.70
2022-08-28T08:01:27.258Z,9.10
2022-08-28T08:02:27.167Z,9.80
2022-08-28T08:03:27.225Z,12.60
2022-08-28T08:04:27.252Z,9.30
2022-08-28T08:05:27.141Z,7.80
2022-08-28T08:06:27.130Z,9.00
2022-08-28T08:07:27.112Z,7.80
2022-08-28T08:08:27.123Z,10.10
2022-08-28T08:09:27.326Z,10.00
2022-08-28T08:10:27.135Z,9.20
2022-08-28T08:11:27.054Z,6.70
2022-08-28T08:12:29.325Z,9.30
2022-08-28T08:13:27.041Z,7.80
2022-08-28T08:14:27.056Z,7.80
2022-08-28T08:15:31.114Z,8.80
2022-08-28T08:16:27.032Z,9.50
2022-08-28T08:17:26.964Z,9.30
2022-08-28T08:18:26.996Z,8.40
2022-08-28T08:19:26.946Z,8.40
2022-08-28T08:20:26.982Z,10.00
2022-08-28T08:21:30.103Z,10.10
2022-08-28T08:22:26.927Z,8.20
2022-08-28T08:23:26.889Z,6.90
2022-08-28T08:24:26.958Z,8.30
2022-08-28T08:25:26.899Z,7.80
2022-08-28T08:26:26.897Z,7.60
2022-08-28T08:27:26.836Z,10.50
2022-08-28T08:28:26.863Z,6.90
2022-08-28T08:29:26.814Z,8.20
2022-08-28T08:30:26.824Z,9.50
2022-08-28T08:31:26.957Z,7.80
2022-08-28T08:32:26.843Z,8.30
2022-08-28T08:33:26.793Z,6.70
2022-08-28T08:34:26.781Z,8.20
2022-08-28T08:35:26.815Z,8.00
2022-08-28T08:36:26.745Z,7.60
2022-08-28T08:37:26.744Z,9.20
2022-08-28T08:38:26.735Z,8.50
2022-08-28T08:39:26.686Z,6.70
2022-08-28T08:40:26.741Z,9.90
2022-08-28T08:41:26.674Z,9.30
2022-08-28T08:42:26.687Z,7.00
2022-08-28T08:43:26.660Z,7.30
2022-08-28T08:44:33.190Z,7.40
2022-08-28T08:45:26.668Z,8.10
2022-08-28T08:46:26.640Z,9.00
2022-08-28T08:47:26.634Z,9.40
2022-08-28T08:48:26.619Z,7.70
2022-08-28T08:49:26.565Z,6.40
2022-08-28T08:50:26.929Z,8.90
2022-08-28T08:51:26.545Z,9.70
2022-08-28T08:52:26.531Z,8.80
2022-08-28T08:53:26.503Z,10.10
2022-08-28T08:54:26.534Z,7.30
2022-08-28T08:55:26.487Z,8.00
2022-08-28T08:56:34.628Z,8.00
2022-08-28T08:57:26.477Z,7.10
2022-08-28T08:58:26.490Z,9.40
2022-08-28T08:59:26.487Z,8.20
2022-08-28T09:00:26.422Z,9.20
2022-08-28T09:01:26.486Z,8.30
2022-08-28T09:02:31.544Z,6.80
2022-08-28T09:03:26.442Z,9.00
2022-08-28T09:04:26.371Z,8.10
2022-08-28T09:05:26.379Z,8.30
2022-08-28T09:06:26.351Z,7.00
2022-08-28T09:07:26.364Z,10.80
2022-08-28T09:08:26.396Z,10.40
2022-08-28T09:09:26.316Z,7.50
2022-08-28T09:10:26.332Z,7.80
2022-08-28T09:11:26.282Z,6.80
2022-08-28T09:12:26.300Z,7.90
2022-08-28T09:13:26.320Z,5.90
2022-08-28T09:14:27.017Z,9.40
2022-08-28T09:15:26.371Z,8.60
2022-08-28T09:16:26.290Z,7.80
2022-08-28T09:17:26.218Z,8.50
2022-08-28T09:18:26.204Z,8.20
2022-08-28T09:19:26.164Z,6.00
2022-08-28T09:20:32.770Z,8.00
2022-08-28T09:21:29.294Z,8.60
2022-08-28T09:22:26.144Z,5.50
2022-08-28T09:23:26.206Z,6.50
2022-08-28T09:24:26.120Z,7.50
2022-08-28T09:25:26.089Z,6.10
2022-08-28T09:26:26.108Z,8.20
2022-08-28T09:27:26.113Z,8.70
2022-08-28T09:28:26.062Z,9.30
2022-08-28T09:29:26.043Z,7.00
2022-08-28T09:30:26.036Z,10.10
2022-08-28T09:31:26.077Z,9.80
2022-08-28T09:32:26.118Z,6.60
2022-08-28T09:33:25.983Z,8.60
2022-08-28T09:34:25.996Z,7.10
2022-08-28T09:35:26.009Z,9.10
2022-08-28T09:36:25.973Z,7.10
2022-08-28T09:37:25.968Z,7.00
2022-08-28T09:38:27.854Z,8.10
2022-08-28T09:39:25.943Z,11.30
2022-08-28T09:40:25.958Z,7.50
2022-08-28T09:41:25.886Z,6.90
2022-08-28T09:42:25.888Z,7.00
2022-08-28T09:43:25.926Z,7.70
2022-08-28T09:44:25.891Z,7.20
2022-08-28T09:45:25.849Z,6.10
2022-08-28T09:46:25.905Z,7.10
2022-08-28T09:47:25.826Z,6.80
2022-08-28T09:48:25.825Z,7.00
2022-08-28T09:49:25.806Z,8.50
2022-08-28T09:50:25.793Z,9.40
2022-08-28T09:51:25.746Z,7.70
2022-08-28T09:52:25.752Z,8.90
2022-08-28T09:53:25.748Z,7.20
2022-08-28T09:54:25.837Z,8.30
2022-08-28T09:55:25.710Z,8.10
2022-08-28T09:56:25.714Z,8.80
2022-08-28T09:57:25.670Z,8.90
2022-08-28T09:58:25.678Z,7.80
2022-08-28T09:59:25.653Z,7.30
2022-08-28T10:00:25.700Z,6.70
2022-08-28T10:01:25.741Z,7.30
2022-08-28T10:02:25.643Z,7.50
2022-08-28T10:03:25.607Z,8.40
2022-08-28T10:04:25.675Z,8.30
2022-08-28T10:05:25.838Z,7.50
2022-08-28T10:06:25.589Z,7.60
2022-08-28T10:07:25.574Z,5.90
2022-08-28T10:08:25.540Z,6.10
2022-08-28T10:09:25.518Z,7.00
2022-08-28T10:10:25.551Z,8.60
2022-08-28T10:11:25.528Z,7.90
2022-08-28T10:12:25.518Z,9.80
2022-08-28T10:13:25.482Z,7.30
2022-08-28T10:14:25.491Z,8.70
2022-08-28T10:15:25.475Z,8.40
2022-08-28T10:16:25.518Z,7.00
2022-08-28T10:17:25.431Z,9.50
2022-08-28T10:18:25.443Z,7.80
2022-08-28T10:19:25.392Z,6.50
2022-08-28T10:20:25.426Z,6.40
2022-08-28T10:21:25.376Z,8.90
2022-08-28T10:22:25.429Z,7.70
2022-08-28T10:23:25.357Z,8.20
2022-08-28T10:24:27.250Z,8.80
2022-08-28T10:25:25.328Z,8.90
2022-08-28T10:26:25.346Z,8.00
2022-08-28T10:27:25.345Z,7.90
2022-08-28T10:28:25.311Z,8.30
2022-08-28T10:29:25.284Z,6.60
2022-08-28T10:30:25.272Z,5.30
2022-08-28T10:31:25.274Z,7.70
2022-08-28T10:32:25.255Z,6.30
2022-08-28T10:33:25.279Z,8.10
2022-08-28T10:34:25.214Z,6.60
2022-08-28T10:35:25.216Z,7.90
2022-08-28T10:36:28.798Z,7.60
2022-08-28T10:37:25.159Z,6.90
2022-08-28T10:38:25.208Z,6.90
2022-08-28T10:39:25.129Z,7.60
2022-08-28T10:40:25.248Z,9.50
2022-08-28T10:41:25.108Z,6.50
2022-08-28T10:42:25.158Z,7.50
2022-08-28T10:43:25.088Z,6.60
2022-08-28T10:44:25.148Z,7.50
2022-08-28T10:45:25.089Z,8.30
2022-08-28T10:46:27.205Z,6.10
2022-08-28T10:47:25.051Z,6.90
2022-08-28T10:48:25.053Z,7.50
2022-08-28T10:49:25.053Z,9.20
2022-08-28T10:50:25.016Z,6.30
2022-08-28T10:51:34.777Z,7.00
2022-08-28T10:52:24.988Z,6.80
2022-08-28T10:53:24.964Z,6.60
2022-08-28T10:54:24.969Z,5.80
2022-08-28T10:55:24.964Z,7.70
2022-08-28T10:56:24.988Z,5.00
2022-08-28T10:57:24.915Z,5.60
2022-08-28T10:58:25.519Z,8.40
2022-08-28T10:59:24.882Z,7.00
2022-08-28T11:00:24.940Z,6.30
2022-08-28T11:01:24.886Z,6.70
2022-08-28T11:02:24.965Z,7.10
2022-08-28T11:03:34.322Z,7.20
2022-08-28T11:04:25.673Z,8.10
2022-08-28T11:05:24.804Z,6.60
2022-08-28T11:06:24.899Z,6.90
2022-08-28T11:07:24.778Z,7.80
2022-08-28T11:08:24.801Z,6.60
2022-08-28T11:09:24.762Z,8.00
2022-08-28T11:10:24.754Z,9.20
2022-08-28T11:11:24.773Z,7.90
2022-08-28T11:12:24.744Z,8.40
2022-08-28T11:13:24.720Z,6.20
2022-08-28T11:14:24.709Z,7.90
2022-08-28T11:15:24.677Z,5.40
2022-08-28T11:16:24.753Z,8.00
2022-08-28T11:17:24.688Z,10.60
2022-08-28T11:18:25.350Z,7.40
2022-08-28T11:19:24.640Z,7.60
2022-08-28T11:20:24.621Z,8.30
2022-08-28T11:21:24.599Z,6.60
2022-08-28T11:22:24.658Z,7.70
2022-08-28T11:23:24.568Z,7.10
2022-08-28T11:24:24.571Z,6.50
2022-08-28T11:25:26.515Z,7.50
2022-08-28T11:26:24.545Z,6.30
2022-08-28T11:27:24.524Z,7.20
2022-08-28T11:28:24.597Z,7.90
2022-08-28T11:29:24.510Z,7.10
2022-08-28T11:30:24.512Z,9.80
2022-08-28T11:31:29.164Z,5.50
2022-08-28T11:32:24.495Z,5.90
2022-08-28T11:33:24.527Z,7.00
2022-08-28T11:34:24.485Z,6.50
2022-08-28T11:35:24.423Z,7.00
2022-08-28T11:36:24.422Z,8.40
2022-08-28T11:37:24.407Z,8.40
2022-08-28T11:38:24.412Z,7.30
2022-08-28T11:39:24.426Z,7.60
2022-08-28T11:40:24.471Z,7.00
2022-08-28T11:41:24.365Z,6.40
2022-08-28T11:42:24.341Z,8.50
2022-08-28T11:43:24.330Z,7.00
2022-08-28T11:44:24.381Z,7.10
2022-08-28T11:45:24.323Z,9.50
2022-08-28T11:46:24.419Z,6.70
2022-08-28T11:47:24.282Z,7.20
2022-08-28T11:48:24.252Z,7.70
2022-08-28T11:49:24.237Z,6.30
2022-08-28T11:50:24.301Z,6.10
2022-08-28T11:51:24.222Z,7.30
2022-08-28T11:52:24.225Z,6.50
2022-08-28T11:53:24.214Z,8.40
2022-08-28T11:54:24.210Z,9.70
2022-08-28T11:55:24.197Z,7.30
2022-08-28T11:56:30.512Z,6.80
2022-08-28T11:57:24.144Z,7.30
2022-08-28T11:58:24.159Z,6.40
2022-08-28T11:59:24.165Z,6.60
2022-08-28T12:00:24.135Z,7.20
2022-08-28T12:01:24.116Z,7.90
2022-08-28T12:02:24.183Z,7.00
2022-08-28T12:03:24.062Z,7.30
2022-08-28T12:04:24.114Z,8.50
2022-08-28T12:05:24.068Z,6.70
2022-08-28T12:06:24.101Z,7.90
2022-08-28T12:07:24.008Z,7.90
2022-08-28T12:08:24.022Z,7.30
2022-08-28T12:09:24.013Z,7.90
2022-08-28T12:10:23.996Z,9.60
2022-08-28T12:11:23.956Z,7.50
2022-08-28T12:12:23.988Z,5.80
2022-08-28T12:13:23.996Z,6.20
2022-08-28T12:14:23.951Z,7.00
2022-08-28T12:15:23.925Z,6.50
2022-08-28T12:16:24.053Z,7.90
2022-08-28T12:17:26.859Z,7.10
2022-08-28T12:18:23.889Z,7.80
2022-08-28T12:19:23.867Z,7.50
2022-08-28T12:20:23.836Z,8.00
2022-08-28T12:21:23.845Z,8.40
2022-08-28T12:22:23.819Z,5.90
2022-08-28T12:23:23.856Z,8.40
2022-08-28T12:24:23.788Z,7.10
2022-08-28T12:25:23.851Z,6.00
2022-08-28T12:26:23.777Z,9.40
2022-08-28T12:27:23.766Z,7.80
2022-08-28T12:28:23.823Z,6.10
2022-08-28T12:29:27.195Z,9.30
2022-08-28T12:30:23.737Z,7.90
2022-08-28T12:31:23.766Z,7.80
2022-08-28T12:32:23.706Z,8.10
2022-08-28T12:33:23.711Z,7.30
2022-08-28T12:34:23.724Z,7.30
2022-08-28T12:35:23.723Z,6.80
2022-08-28T12:36:23.666Z,8.10
2022-08-28T12:37:23.651Z,8.60
2022-08-28T12:38:23.656Z,10.10
2022-08-28T12:39:23.658Z,6.90
2022-08-28T12:40:23.767Z,7.80
2022-08-28T12:41:23.612Z,7.60
2022-08-28T12:42:23.608Z,5.70
2022-08-28T12:43:23.564Z,7.90
2022-08-28T12:44:23.606Z,6.70
2022-08-28T12:45:23.535Z,7.20
2022-08-28T12:46:23.602Z,7.90
2022-08-28T12:47:23.529Z,8.70
2022-08-28T12:48:23.483Z,6.30
2022-08-28T12:49:23.519Z,8.40
2022-08-28T12:50:23.549Z,7.00
2022-08-28T12:51:23.466Z,6.50
2022-08-28T12:52:23.442Z,8.80
2022-08-28T12:53:23.438Z,9.30
2022-08-28T12:54:23.428Z,6.70
2022-08-28T12:55:24.602Z,7.20
2022-08-28T12:56:23.388Z,7.10
2022-08-28T12:57:23.392Z,7.00
2022-08-28T12:58:23.361Z,8.30
2022-08-28T12:59:27.152Z,5.90
2022-08-28T13:00:23.343Z,6.10
2022-08-28T13:01:23.547Z,8.00
2022-08-28T13:02:23.463Z,8.50
2022-08-28T13:03:23.312Z,7.60
2022-08-28T13:04:23.314Z,5.50
2022-08-28T13:05:23.299Z,7.30
2022-08-28T13:06:23.346Z,7.10
2022-08-28T13:07:23.263Z,7.00
2022-08-28T13:08:23.239Z,7.40